Time;durP1;ratioP1;P1;durP2;ratioP2;P2;SDS_P1;SDS_P2;PMS_P1;PMS_P2;Temp;Humidity;BMP_temperature;BMP_pressure;BME280_temperature;BME280_humidity;BME280_pressure;Samples;Min_cycle;Max_cycle;Signal;HPM_P1;HPM_P2
2021/04/17 00:01:15;;;;;;;;;;;16.70;59.30;;;;;;5052964;28;19913;-94
2021/04/17 00:03:41;;;;;;;;;;;16.80;59.30;;;;;;5053469;28;20016;-94
2021/04/17 00:06:06;;;;;;;;;;;16.70;59.30;;;;;;5050707;28;19916;-94
2021/04/17 00:08:32;;;;;;;;;;;16.70;59.30;;;;;;5048680;28;19929;-95
2021/04/17 00:10:58;;;;;;;;;;;16.70;59.30;;;;;;5050780;28;19917;-94
2021/04/17 00:13:23;;;;;;;;;;;16.70;59.30;;;;;;5052758;28;20357;-95
2021/04/17 00:15:49;;;;;;;;;;;16.70;59.30;;;;;;5055797;28;19913;-95
2021/04/17 00:18:14;;;;;;;;;;;16.70;59.30;;;;;;5052497;28;19955;-92
2021/04/17 00:20:43;;;;;;;;;;;16.70;59.30;;;;;;5052609;28;19913;-93
2021/04/17 00:23:08;;;;;;;;;;;16.70;59.30;;;;;;5051168;28;19913;-93
2021/04/17 00:25:34;;;;;;;;;;;16.70;59.30;;;;;;5052277;28;19962;-94
2021/04/17 00:27:59;;;;;;;;;;;16.70;59.20;;;;;;5048193;28;19913;-95
2021/04/17 00:30:25;;;;;;;;;;;16.70;59.20;;;;;;5054386;28;20378;-94
2021/04/17 00:32:50;;;;;;;;;;;16.70;59.20;;;;;;5052759;28;20366;-95
2021/04/17 00:35:16;;;;;;;;;;;16.70;59.20;;;;;;5053033;28;19925;-94
2021/04/17 00:37:41;;;;;;;;;;;16.70;59.20;;;;;;5063644;28;19980;-92
2021/04/17 00:40:07;;;;;;;;;;;16.70;59.20;;;;;;5033217;28;19909;-92
2021/04/17 00:42:33;;;;;;;;;;;16.70;59.20;;;;;;5051217;28;19913;-95
2021/04/17 00:44:59;;;;;;;;;;;16.70;59.20;;;;;;5053481;28;19974;-94
2021/04/17 00:47:24;;;;;;;;;;;16.70;59.20;;;;;;5040616;28;19921;-93
2021/04/17 00:49:53;;;;;;;;;;;16.70;59.20;;;;;;5066441;28;19917;-94
2021/04/17 00:52:18;;;;;;;;;;;16.70;59.20;;;;;;5051150;28;19913;-93
2021/04/17 00:54:44;;;;;;;;;;;16.70;59.20;;;;;;5059654;28;19928;-91
2021/04/17 00:57:09;;;;;;;;;;;16.70;59.20;;;;;;5059152;28;19921;-94
2021/04/17 00:59:35;;;;;;;;;;;16.70;59.20;;;;;;5037632;28;19967;-93
2021/04/17 01:02:01;;;;;;;;;;;16.70;59.20;;;;;;5046803;28;19920;-94
2021/04/17 01:04:29;;;;;;;;;;;16.70;59.20;;;;;;5048122;28;19917;-93
2021/04/17 01:07:03;;;;;;;;;;;16.70;59.10;;;;;;5052982;28;20309;-94
2021/04/17 01:09:41;;;;;;;;;;;16.70;59.10;;;;;;5046716;28;20285;-94
2021/04/17 01:12:11;;;;;;;;;;;16.70;59.10;;;;;;5069905;28;19923;-92
2021/04/17 01:14:37;;;;;;;;;;;16.70;59.10;;;;;;5072040;28;19931;-95
2021/04/17 01:17:07;;;;;;;;;;;16.70;59.10;;;;;;5050898;28;20039;-94
2021/04/17 01:19:32;;;;;;;;;;;16.70;59.10;;;;;;5051286;28;20315;-94
2021/04/17 01:21:59;;;;;;;;;;;16.60;59.10;;;;;;5056530;28;19920;-94
2021/04/17 01:24:27;;;;;;;;;;;16.70;59.10;;;;;;5071253;28;19913;-95
2021/04/17 01:26:52;;;;;;;;;;;16.70;59.10;;;;;;5067302;28;20273;-93
2021/04/17 01:29:19;;;;;;;;;;;16.70;59.10;;;;;;5071436;28;19913;-90
2021/04/17 01:31:44;;;;;;;;;;;16.70;59.10;;;;;;5054271;28;19916;-94
2021/04/17 01:34:10;;;;;;;;;;;16.70;59.00;;;;;;5072998;28;19920;-94
2021/04/17 01:36:36;;;;;;;;;;;16.70;59.00;;;;;;5044549;28;20015;-95
2021/04/17 01:39:06;;;;;;;;;;;16.70;59.00;;;;;;5061906;28;19943;-95
2021/04/17 01:41:34;;;;;;;;;;;16.70;59.10;;;;;;5055792;28;19913;-94
2021/04/17 01:44:02;;;;;;;;;;;16.70;59.00;;;;;;5061487;28;20422;-94
2021/04/17 01:46:29;;;;;;;;;;;16.70;59.00;;;;;;5075521;28;19920;-93
2021/04/17 01:48:58;;;;;;;;;;;16.70;59.00;;;;;;5075484;28;19920;-94
2021/04/17 01:51:26;;;;;;;;;;;16.70;59.00;;;;;;5081696;28;19912;-93
2021/04/17 01:53:51;;;;;;;;;;;16.70;59.00;;;;;;5076184;28;19920;-93
2021/04/17 01:56:20;;;;;;;;;;;16.70;59.00;;;;;;5055280;28;19912;-93
2021/04/17 01:58:47;;;;;;;;;;;16.60;59.00;;;;;;5050085;28;19913;-91
2021/04/17 02:01:13;;;;;;;;;;;16.70;59.00;;;;;;5071149;28;19919;-93
2021/04/17 02:03:39;;;;;;;;;;;16.70;59.00;;;;;;5076352;28;19995;-93
2021/04/17 02:06:05;;;;;;;;;;;16.60;59.00;;;;;;5058265;28;20346;-92
2021/04/17 02:08:37;;;;;;;;;;;16.60;59.00;;;;;;5068404;28;20011;-92
2021/04/17 02:11:03;;;;;;;;;;;16.60;59.00;;;;;;5074124;28;19934;-91
2021/04/17 02:13:28;;;;;;;;;;;16.70;59.00;;;;;;5076155;28;20421;-92
2021/04/17 02:15:56;;;;;;;;;;;16.70;59.00;;;;;;5062942;28;19913;-92
2021/04/17 02:18:28;;;;;;;;;;;16.60;59.00;;;;;;5084207;28;19913;-93
2021/04/17 02:21:04;;;;;;;;;;;16.60;59.00;;;;;;5052051;28;19951;-93
2021/04/17 02:23:31;;;;;;;;;;;16.70;59.00;;;;;;5074227;28;19913;-92
2021/04/17 02:25:57;;;;;;;;;;;16.60;58.90;;;;;;5057631;28;20014;-93
2021/04/17 02:28:24;;;;;;;;;;;16.60;58.90;;;;;;5061841;28;20019;-93
2021/04/17 02:30:49;;;;;;;;;;;16.60;58.90;;;;;;5070418;28;20384;-93
2021/04/17 02:33:15;;;;;;;;;;;16.60;58.90;;;;;;5054746;28;19912;-94
2021/04/17 02:35:40;;;;;;;;;;;16.60;59.00;;;;;;5068297;28;19919;-94
2021/04/17 02:38:06;;;;;;;;;;;16.60;58.90;;;;;;5048714;28;19917;-92
2021/04/17 02:40:31;;;;;;;;;;;16.70;58.90;;;;;;5072132;28;19979;-96
2021/04/17 02:42:57;;;;;;;;;;;16.60;58.90;;;;;;5075384;28;19977;-94
2021/04/17 02:45:22;;;;;;;;;;;16.70;58.90;;;;;;5056111;28;19916;-94
2021/04/17 02:47:48;;;;;;;;;;;16.60;58.90;;;;;;5054735;28;20278;-94
2021/04/17 02:50:13;;;;;;;;;;;16.60;58.90;;;;;;5054167;28;20012;-93
2021/04/17 02:52:39;;;;;;;;;;;16.60;58.90;;;;;;5056386;28;19912;-92
2021/04/17 02:55:05;;;;;;;;;;;16.60;58.90;;;;;;5069495;28;19920;-92
2021/04/17 02:57:30;;;;;;;;;;;16.60;58.90;;;;;;5052753;28;19939;-93
2021/04/17 02:59:56;;;;;;;;;;;16.60;58.90;;;;;;5057436;28;19916;-94
2021/04/17 03:02:21;;;;;;;;;;;16.60;58.90;;;;;;5074555;28;19913;-92
2021/04/17 03:04:50;;;;;;;;;;;16.60;58.90;;;;;;5054140;28;19964;-95
2021/04/17 03:07:15;;;;;;;;;;;16.60;58.90;;;;;;5041007;28;20383;-93
2021/04/17 03:09:41;;;;;;;;;;;16.60;58.80;;;;;;5026132;28;19914;-93
2021/04/17 03:12:07;;;;;;;;;;;16.60;58.90;;;;;;5020118;28;20443;-93
2021/04/17 03:14:32;;;;;;;;;;;16.60;58.90;;;;;;5036551;28;20437;-92
2021/04/17 03:16:58;;;;;;;;;;;16.60;58.80;;;;;;5034704;28;19953;-93
2021/04/17 03:19:23;;;;;;;;;;;16.60;58.90;;;;;;5036656;28;20050;-93
2021/04/17 03:21:49;;;;;;;;;;;16.60;58.80;;;;;;5035122;28;20255;-93
2021/04/17 03:24:14;;;;;;;;;;;16.60;58.80;;;;;;5038836;28;20017;-92
2021/04/17 03:26:40;;;;;;;;;;;16.60;58.90;;;;;;5038610;28;19967;-95
2021/04/17 03:29:08;;;;;;;;;;;16.60;58.80;;;;;;5026399;28;20270;-92
2021/04/17 03:31:34;;;;;;;;;;;16.60;58.90;;;;;;5021753;28;19913;-93
2021/04/17 03:33:59;;;;;;;;;;;16.60;58.80;;;;;;5027321;28;20278;-93
2021/04/17 03:36:25;;;;;;;;;;;16.60;58.90;;;;;;5031779;28;19920;-94
2021/04/17 03:38:51;;;;;;;;;;;16.60;58.90;;;;;;5033543;28;19960;-94
2021/04/17 03:41:16;;;;;;;;;;;16.60;58.80;;;;;;5034543;28;19939;-92
2021/04/17 03:43:42;;;;;;;;;;;16.60;58.80;;;;;;5033839;28;19983;-92
2021/04/17 03:46:07;;;;;;;;;;;16.60;58.80;;;;;;5040405;28;20433;-93
2021/04/17 03:48:33;;;;;;;;;;;16.60;58.90;;;;;;5033305;28;19912;-92
2021/04/17 03:50:58;;;;;;;;;;;16.60;58.90;;;;;;5033254;28;19913;-93
2021/04/17 03:53:24;;;;;;;;;;;16.60;58.80;;;;;;5039648;28;20282;-93
2021/04/17 03:55:50;;;;;;;;;;;16.60;58.80;;;;;;5030106;28;19913;-92
2021/04/17 03:58:16;;;;;;;;;;;16.60;58.80;;;;;;5027147;28;19920;-92
2021/04/17 04:00:41;;;;;;;;;;;16.60;58.80;;;;;;5038467;28;19913;-93
2021/04/17 04:03:07;;;;;;;;;;;16.60;58.80;;;;;;5038907;28;19917;-93
2021/04/17 04:05:32;;;;;;;;;;;16.60;58.80;;;;;;5037871;28;19914;-92
2021/04/17 04:07:58;;;;;;;;;;;16.60;58.80;;;;;;5031274;28;19929;-91
2021/04/17 04:10:23;;;;;;;;;;;16.60;58.80;;;;;;5038507;28;20378;-95
2021/04/17 04:12:49;;;;;;;;;;;16.60;58.80;;;;;;5052696;28;19913;-92
2021/04/17 04:15:15;;;;;;;;;;;16.50;58.80;;;;;;5052256;28;20271;-93
2021/04/17 04:17:41;;;;;;;;;;;16.60;58.80;;;;;;5053040;28;20257;-93
2021/04/17 04:20:06;;;;;;;;;;;16.60;58.80;;;;;;5049932;28;19940;-93
2021/04/17 04:22:33;;;;;;;;;;;16.60;58.80;;;;;;5052267;28;19920;-92
2021/04/17 04:24:58;;;;;;;;;;;16.60;58.80;;;;;;5053224;28;19920;-92
2021/04/17 04:27:24;;;;;;;;;;;16.60;58.70;;;;;;5050997;28;19913;-92
2021/04/17 04:29:49;;;;;;;;;;;16.60;58.80;;;;;;5045985;28;19920;-94
2021/04/17 04:32:15;;;;;;;;;;;16.60;58.80;;;;;;5046389;28;19921;-91
2021/04/17 04:34:40;;;;;;;;;;;16.60;58.80;;;;;;5061066;28;19920;-93
2021/04/17 04:37:06;;;;;;;;;;;16.60;58.80;;;;;;5051473;28;20301;-93
2021/04/17 04:39:31;;;;;;;;;;;16.60;58.80;;;;;;5052869;28;19920;-94
2021/04/17 04:41:57;;;;;;;;;;;16.60;58.80;;;;;;5040965;28;19923;-95
2021/04/17 04:44:22;;;;;;;;;;;16.60;58.80;;;;;;5051904;28;19913;-92
2021/04/17 04:46:48;;;;;;;;;;;16.60;58.80;;;;;;5047566;28;19913;-93
2021/04/17 04:49:14;;;;;;;;;;;16.60;58.80;;;;;;5043893;28;19967;-93
2021/04/17 04:51:39;;;;;;;;;;;16.60;58.80;;;;;;5051655;28;20354;-89
2021/04/17 04:54:05;;;;;;;;;;;16.60;58.80;;;;;;5052744;28;19928;-92
2021/04/17 04:56:31;;;;;;;;;;;16.60;58.80;;;;;;5053166;28;19971;-93
2021/04/17 04:58:56;;;;;;;;;;;16.60;58.80;;;;;;5046464;28;19917;-93
2021/04/17 05:01:22;;;;;;;;;;;16.60;58.80;;;;;;5046496;28;19917;-93
2021/04/17 05:03:47;;;;;;;;;;;16.60;58.70;;;;;;5052780;28;19921;-92
2021/04/17 05:06:15;;;;;;;;;;;16.60;58.80;;;;;;5044725;28;20278;-94
2021/04/17 05:08:41;;;;;;;;;;;16.60;58.80;;;;;;5068210;28;20011;-93
2021/04/17 05:11:06;;;;;;;;;;;16.60;58.70;;;;;;5054999;28;19964;-93
2021/04/17 05:13:32;;;;;;;;;;;16.60;58.70;;;;;;5065216;28;20293;-92
2021/04/17 05:15:57;;;;;;;;;;;16.60;58.70;;;;;;5077118;28;19923;-92
2021/04/17 05:18:23;;;;;;;;;;;16.60;58.70;;;;;;5059242;28;19962;-93
2021/04/17 05:20:48;;;;;;;;;;;16.60;58.60;;;;;;5077115;28;20300;-93
2021/04/17 05:23:14;;;;;;;;;;;16.60;58.60;;;;;;5058335;28;19968;-92
2021/04/17 05:25:39;;;;;;;;;;;16.60;58.60;;;;;;5054973;28;19912;-93
2021/04/17 05:28:05;;;;;;;;;;;16.60;58.60;;;;;;5073758;28;20258;-92
2021/04/17 05:30:30;;;;;;;;;;;16.60;58.60;;;;;;5048380;28;20312;-92
2021/04/17 05:32:56;;;;;;;;;;;16.70;58.50;;;;;;5054235;28;19916;-95
2021/04/17 05:35:21;;;;;;;;;;;16.70;58.50;;;;;;5073238;28;20011;-93
2021/04/17 05:37:47;;;;;;;;;;;16.70;58.50;;;;;;5076420;28;19920;-93
2021/04/17 05:40:15;;;;;;;;;;;16.70;58.40;;;;;;5057489;28;20380;-92
2021/04/17 05:42:40;;;;;;;;;;;16.70;58.40;;;;;;5055736;28;19913;-93
2021/04/17 05:45:06;;;;;;;;;;;16.70;58.30;;;;;;5065359;28;19919;-93
2021/04/17 05:47:32;;;;;;;;;;;16.70;58.30;;;;;;5058506;28;19924;-92
2021/04/17 05:49:57;;;;;;;;;;;16.70;58.30;;;;;;5076534;28;19917;-92
2021/04/17 05:52:23;;;;;;;;;;;16.70;58.30;;;;;;5057825;28;19939;-92
2021/04/17 05:54:48;;;;;;;;;;;16.70;58.20;;;;;;5066153;28;19954;-92
2021/04/17 05:57:14;;;;;;;;;;;16.70;58.20;;;;;;5074919;28;19909;-92
2021/04/17 05:59:39;;;;;;;;;;;16.80;58.20;;;;;;5058654;28;19913;-93
2021/04/17 06:02:06;;;;;;;;;;;16.70;58.10;;;;;;5065782;28;19920;-88
2021/04/17 06:04:31;;;;;;;;;;;16.80;58.10;;;;;;5076350;28;20023;-90
2021/04/17 06:06:57;;;;;;;;;;;16.70;58.10;;;;;;5067977;28;20374;-95
2021/04/17 06:09:22;;;;;;;;;;;16.80;58.20;;;;;;5042296;28;19917;-95
2021/04/17 06:11:48;;;;;;;;;;;16.70;58.20;;;;;;5057174;28;19917;-96
2021/04/17 06:14:13;;;;;;;;;;;16.80;58.20;;;;;;5063902;28;19920;-90
2021/04/17 06:16:39;;;;;;;;;;;16.70;58.20;;;;;;5071188;28;20006;-87
2021/04/17 06:19:06;;;;;;;;;;;16.70;58.20;;;;;;5075811;28;20284;-90
2021/04/17 06:21:31;;;;;;;;;;;16.70;58.20;;;;;;5050134;28;19913;-90
2021/04/17 06:23:57;;;;;;;;;;;16.70;58.20;;;;;;5075645;28;20278;-87
2021/04/17 06:26:22;;;;;;;;;;;16.80;58.10;;;;;;5076006;28;20293;-90
2021/04/17 06:28:48;;;;;;;;;;;16.80;58.10;;;;;;5055560;28;19913;-87
2021/04/17 06:31:13;;;;;;;;;;;16.80;58.10;;;;;;5053913;28;19919;-85
2021/04/17 06:33:39;;;;;;;;;;;16.80;58.00;;;;;;5057020;28;19968;-87
2021/04/17 06:36:06;;;;;;;;;;;16.80;58.10;;;;;;5075437;28;19912;-86
2021/04/17 06:38:32;;;;;;;;;;;16.80;58.00;;;;;;5062033;28;19959;-86
2021/04/17 06:40:57;;;;;;;;;;;16.80;58.00;;;;;;5075725;28;19967;-86
2021/04/17 06:43:23;;;;;;;;;;;16.80;58.00;;;;;;5075209;28;19918;-86
2021/04/17 06:45:52;;;;;;;;;;;16.80;57.90;;;;;;5056547;28;20274;-86
2021/04/17 06:48:19;;;;;;;;;;;16.80;57.90;;;;;;5057790;28;19916;-86
2021/04/17 06:50:45;;;;;;;;;;;16.80;57.90;;;;;;5056003;28;19913;-86
2021/04/17 06:53:11;;;;;;;;;;;16.80;57.90;;;;;;5063289;28;19958;-86
2021/04/17 06:55:38;;;;;;;;;;;16.80;57.80;;;;;;5054878;28;19916;-86
2021/04/17 06:58:04;;;;;;;;;;;16.80;57.80;;;;;;5068767;28;19924;-86
2021/04/17 07:00:29;;;;;;;;;;;16.80;57.80;;;;;;5057278;28;19913;-87
2021/04/17 07:02:55;;;;;;;;;;;16.80;57.80;;;;;;5054358;28;20373;-88
2021/04/17 07:05:20;;;;;;;;;;;16.80;57.70;;;;;;5069480;28;19913;-88
2021/04/17 07:07:46;;;;;;;;;;;16.80;57.70;;;;;;5042730;28;20396;-89
2021/04/17 07:10:12;;;;;;;;;;;16.80;57.70;;;;;;5071381;28;19919;-88
2021/04/17 07:12:38;;;;;;;;;;;16.90;57.60;;;;;;5044178;28;20304;-88
2021/04/17 07:15:07;;;;;;;;;;;16.80;57.70;;;;;;5071632;28;19977;-88
2021/04/17 07:17:35;;;;;;;;;;;16.80;57.60;;;;;;5056799;28;19916;-88
2021/04/17 07:20:03;;;;;;;;;;;16.80;57.70;;;;;;5056412;28;19912;-88
2021/04/17 07:22:39;;;;;;;;;;;16.80;57.70;;;;;;5052725;28;19912;-88
2021/04/17 07:25:04;;;;;;;;;;;16.80;57.70;;;;;;5071335;28;19948;-88
2021/04/17 07:27:30;;;;;;;;;;;16.80;57.70;;;;;;5052404;28;19913;-89
2021/04/17 07:29:55;;;;;;;;;;;16.80;57.70;;;;;;5072839;28;20362;-88
2021/04/17 07:32:21;;;;;;;;;;;16.80;57.80;;;;;;5053154;28;20314;-88
2021/04/17 07:35:07;;;;;;;;;;;16.80;57.80;;;;;;5054944;28;19924;-87
2021/04/17 07:37:33;;;;;;;;;;;16.80;57.70;;;;;;5020757;28;19909;-88
2021/04/17 07:40:17;;;;;;;;;;;16.80;57.70;;;;;;5062116;28;19916;-88
2021/04/17 07:42:43;;;;;;;;;;;16.90;57.60;;;;;;5074750;28;19938;-88
2021/04/17 07:45:19;;;;;;;;;;;16.80;57.60;;;;;;5062663;28;19913;-88
2021/04/17 07:47:45;;;;;;;;;;;16.90;57.50;;;;;;5072615;28;19916;-88
2021/04/17 07:50:11;;;;;;;;;;;16.90;57.40;;;;;;5072833;28;19957;-88
2021/04/17 07:52:37;;;;;;;;;;;16.90;57.30;;;;;;5074375;28;20069;-88
2021/04/17 07:55:07;;;;;;;;;;;17.00;57.30;;;;;;5042860;28;20010;-88
2021/04/17 07:57:36;;;;;;;;;;;17.00;57.20;;;;;;5070094;28;19936;-88
2021/04/17 08:00:05;;;;;;;;;;;17.00;57.10;;;;;;5059347;28;20388;-88
2021/04/17 08:02:31;;;;;;;;;;;17.00;57.00;;;;;;5052805;28;19913;-88
2021/04/17 08:04:58;;;;;;;;;;;17.10;56.90;;;;;;5045583;28;19924;-89
2021/04/17 08:07:24;;;;;;;;;;;17.10;56.80;;;;;;5059311;28;19920;-88
2021/04/17 08:09:52;;;;;;;;;;;17.20;56.70;;;;;;5073346;28;19940;-88
2021/04/17 08:12:19;;;;;;;;;;;17.20;56.60;;;;;;5055908;28;19912;-95
2021/04/17 08:14:45;;;;;;;;;;;17.20;56.60;;;;;;5054149;28;19928;-94
2021/04/17 08:17:10;;;;;;;;;;;17.20;56.50;;;;;;5055617;28;19935;-94
2021/04/17 08:19:37;;;;;;;;;;;17.20;56.50;;;;;;5054491;28;19913;-89
2021/04/17 08:22:03;;;;;;;;;;;17.20;56.50;;;;;;5061288;28;19917;-83
2021/04/17 08:24:30;;;;;;;;;;;17.20;56.50;;;;;;5072265;28;20447;-90
2021/04/17 08:26:56;;;;;;;;;;;17.20;56.60;;;;;;5054212;28;20354;-84
2021/04/17 08:29:41;;;;;;;;;;;17.20;56.60;;;;;;5052596;28;19913;-85
2021/04/17 08:32:06;;;;;;;;;;;17.20;56.60;;;;;;5073002;28;20344;-84
2021/04/17 08:34:32;;;;;;;;;;;17.10;56.70;;;;;;5052124;28;20060;-85
2021/04/17 08:37:04;;;;;;;;;;;17.20;56.70;;;;;;5048049;28;19917;-84
2021/04/17 08:39:33;;;;;;;;;;;17.20;56.80;;;;;;5055629;28;19913;-83
2021/04/17 08:41:59;;;;;;;;;;;17.20;56.80;;;;;;5069005;28;20350;-84
2021/04/17 08:44:32;;;;;;;;;;;17.20;56.70;;;;;;5045096;28;19916;-85
2021/04/17 08:47:01;;;;;;;;;;;17.20;56.60;;;;;;5073424;28;19923;-85
2021/04/17 08:49:31;;;;;;;;;;;17.20;56.50;;;;;;5057868;28;19916;-84
2021/04/17 08:52:09;;;;;;;;;;;17.20;56.50;;;;;;5062071;28;19908;-85
2021/04/17 08:54:35;;;;;;;;;;;17.30;56.50;;;;;;5049272;28;19944;-83
2021/04/17 08:57:02;;;;;;;;;;;17.30;56.50;;;;;;5063424;28;19913;-84
2021/04/17 08:59:30;;;;;;;;;;;17.20;56.60;;;;;;5052098;28;19920;-84
2021/04/17 09:01:57;;;;;;;;;;;17.20;56.60;;;;;;5055913;28;19913;-84
2021/04/17 09:04:23;;;;;;;;;;;17.20;56.70;;;;;;5050762;28;19913;-84
2021/04/17 09:06:50;;;;;;;;;;;17.20;56.60;;;;;;5058461;28;19912;-83
2021/04/17 09:09:15;;;;;;;;;;;17.20;56.60;;;;;;5064297;28;19927;-85
2021/04/17 09:11:41;;;;;;;;;;;17.20;56.60;;;;;;5074792;28;19913;-84
2021/04/17 09:14:25;;;;;;;;;;;17.20;56.50;;;;;;5063446;28;20006;-84
2021/04/17 09:16:51;;;;;;;;;;;17.30;56.40;;;;;;5055616;28;19917;-85
2021/04/17 09:19:35;;;;;;;;;;;17.30;56.30;;;;;;5055505;28;19990;-85
2021/04/17 09:22:01;;;;;;;;;;;17.30;56.30;;;;;;5070456;28;19912;-85
2021/04/17 09:24:26;;;;;;;;;;;17.30;56.20;;;;;;5068081;28;20555;-85
2021/04/17 09:26:52;;;;;;;;;;;17.30;56.10;;;;;;5066450;28;20293;-85
2021/04/17 09:29:17;;;;;;;;;;;17.40;56.00;;;;;;5065031;28;19913;-85
2021/04/17 09:31:45;;;;;;;;;;;17.40;56.00;;;;;;5073497;28;19912;-85
2021/04/17 09:34:14;;;;;;;;;;;17.40;55.90;;;;;;5076103;28;20320;-86
2021/04/17 09:36:39;;;;;;;;;;;17.40;55.90;;;;;;5079515;28;19931;-85
2021/04/17 09:39:25;;;;;;;;;;;17.40;55.90;;;;;;5077727;28;19908;-85
2021/04/17 09:41:52;;;;;;;;;;;17.40;55.90;;;;;;5062706;28;19982;-85
2021/04/17 09:44:18;;;;;;;;;;;17.40;55.90;;;;;;5067093;28;19968;-85
2021/04/17 09:46:44;;;;;;;;;;;17.40;55.90;;;;;;5046370;28;19919;-85
2021/04/17 09:49:10;;;;;;;;;;;17.40;55.90;;;;;;5056698;28;19991;-84
2021/04/17 09:51:35;;;;;;;;;;;17.30;56.00;;;;;;5076630;28;19912;-84
2021/04/17 09:54:03;;;;;;;;;;;17.30;56.00;;;;;;5072656;28;20411;-85
2021/04/17 09:56:46;;;;;;;;;;;17.30;56.10;;;;;;5065260;28;19916;-84
2021/04/17 09:59:15;;;;;;;;;;;17.30;56.20;;;;;;5072784;28;20308;-84
2021/04/17 10:01:54;;;;;;;;;;;17.30;56.20;;;;;;5058133;28;19958;-85
2021/04/17 10:04:19;;;;;;;;;;;17.30;56.30;;;;;;5067573;28;19912;-85
2021/04/17 10:06:54;;;;;;;;;;;17.30;56.20;;;;;;5075916;28;19920;-84
2021/04/17 10:09:21;;;;;;;;;;;17.30;56.20;;;;;;5076093;28;19920;-85
2021/04/17 10:11:46;;;;;;;;;;;17.40;56.00;;;;;;5057565;28;19927;-85
2021/04/17 10:14:12;;;;;;;;;;;17.40;55.90;;;;;;5057088;28;19921;-85
2021/04/17 10:16:40;;;;;;;;;;;17.50;55.80;;;;;;5058636;28;20312;-84
2021/04/17 10:19:13;;;;;;;;;;;17.50;55.70;;;;;;5052220;28;19913;-84
2021/04/17 10:21:39;;;;;;;;;;;17.50;55.70;;;;;;5064518;28;19919;-84
2021/04/17 10:24:14;;;;;;;;;;;17.50;55.60;;;;;;5054938;28;19913;-84
2021/04/17 10:26:51;;;;;;;;;;;17.50;55.60;;;;;;5058078;28;19916;-84
2021/04/17 10:29:17;;;;;;;;;;;17.50;55.70;;;;;;5073351;28;19939;-85
2021/04/17 10:31:43;;;;;;;;;;;17.50;55.70;;;;;;5054234;28;19918;-85
2021/04/17 10:34:09;;;;;;;;;;;17.50;55.80;;;;;;5067616;28;20293;-84
2021/04/17 10:36:34;;;;;;;;;;;17.40;55.80;;;;;;5072312;28;19916;-84
2021/04/17 10:39:05;;;;;;;;;;;17.40;55.80;;;;;;5057374;28;20288;-84
2021/04/17 10:41:31;;;;;;;;;;;17.40;55.70;;;;;;5071562;28;19912;-83
2021/04/17 10:44:10;;;;;;;;;;;17.50;55.70;;;;;;5049250;28;19912;-85
2021/04/17 10:46:41;;;;;;;;;;;17.50;55.70;;;;;;5075570;28;19912;-85
2021/04/17 10:49:06;;;;;;;;;;;17.50;55.70;;;;;;5057387;28;20372;-86
2021/04/17 10:51:35;;;;;;;;;;;17.50;55.80;;;;;;5046922;28;19913;-86
2021/04/17 10:54:01;;;;;;;;;;;17.50;55.80;;;;;;5054153;28;19921;-86
2021/04/17 10:56:28;;;;;;;;;;;17.50;55.90;;;;;;5056380;28;20221;-86
2021/04/17 10:59:01;;;;;;;;;;;17.60;55.80;;;;;;5054239;28;19920;-86
2021/04/17 11:01:27;;;;;;;;;;;17.50;55.70;;;;;;5073960;28;19912;-86
2021/04/17 11:03:54;;;;;;;;;;;17.60;55.60;;;;;;5073679;28;20357;-86
2021/04/17 11:06:21;;;;;;;;;;;17.60;55.70;;;;;;5054180;28;19912;-87
2021/04/17 11:08:47;;;;;;;;;;;17.60;55.80;;;;;;5054099;28;19975;-86
2021/04/17 11:11:14;;;;;;;;;;;17.50;56.00;;;;;;5065421;28;19912;-87
2021/04/17 11:13:43;;;;;;;;;;;17.50;56.10;;;;;;5049038;28;19920;-86
2021/04/17 11:16:09;;;;;;;;;;;17.40;56.30;;;;;;5074776;28;19912;-86
2021/04/17 11:18:36;;;;;;;;;;;17.40;56.40;;;;;;5055028;28;19912;-86
2021/04/17 11:21:05;;;;;;;;;;;17.40;56.50;;;;;;5076118;28;20007;-86
2021/04/17 11:23:38;;;;;;;;;;;17.40;56.40;;;;;;5068103;28;19980;-86
2021/04/17 11:26:05;;;;;;;;;;;17.40;56.30;;;;;;5064988;28;20353;-86
2021/04/17 11:28:31;;;;;;;;;;;17.50;56.30;;;;;;5074549;28;19916;-87
2021/04/17 11:30:56;;;;;;;;;;;17.50;56.20;;;;;;5072185;28;19966;-86
2021/04/17 11:33:22;;;;;;;;;;;17.50;56.10;;;;;;5053914;28;19913;-86
2021/04/17 11:35:48;;;;;;;;;;;17.50;56.00;;;;;;5056298;28;20354;-86
2021/04/17 11:38:14;;;;;;;;;;;17.50;56.00;;;;;;5071588;28;19912;-86
2021/04/17 11:40:39;;;;;;;;;;;17.50;56.10;;;;;;5056108;28;19958;-86
2021/04/17 11:43:05;;;;;;;;;;;17.50;56.20;;;;;;5061531;28;19917;-86
2021/04/17 11:45:30;;;;;;;;;;;17.40;56.20;;;;;;5073866;28;19913;-86
2021/04/17 11:47:56;;;;;;;;;;;17.40;56.30;;;;;;5055662;28;20371;-86
2021/04/17 11:50:21;;;;;;;;;;;17.40;56.50;;;;;;5039334;28;20315;-86
2021/04/17 11:52:47;;;;;;;;;;;17.30;56.60;;;;;;5063230;28;19916;-86
2021/04/17 11:55:13;;;;;;;;;;;17.30;56.60;;;;;;5073521;28;19928;-86
2021/04/17 11:57:38;;;;;;;;;;;17.30;56.60;;;;;;5053984;28;19999;-86
2021/04/17 12:00:04;;;;;;;;;;;17.30;56.70;;;;;;5055697;28;19919;-86
2021/04/17 12:02:30;;;;;;;;;;;17.30;56.70;;;;;;5044522;28;19958;-85
2021/04/17 12:04:55;;;;;;;;;;;17.30;56.70;;;;;;5074193;28;19913;-86
2021/04/17 12:07:21;;;;;;;;;;;17.30;56.70;;;;;;5056121;28;19920;-86
2021/04/17 12:09:47;;;;;;;;;;;17.30;56.80;;;;;;5073586;28;19990;-86
2021/04/17 12:12:13;;;;;;;;;;;17.30;56.90;;;;;;5053083;28;19913;-86
2021/04/17 12:14:38;;;;;;;;;;;17.30;56.90;;;;;;5070113;28;19932;-87
2021/04/17 12:17:04;;;;;;;;;;;17.20;57.00;;;;;;5062164;28;19913;-86
2021/04/17 12:19:30;;;;;;;;;;;17.30;57.00;;;;;;5053150;28;19956;-86
2021/04/17 12:21:55;;;;;;;;;;;17.30;57.00;;;;;;5069494;28;20016;-85
2021/04/17 12:24:21;;;;;;;;;;;17.30;57.00;;;;;;5043842;28;19912;-86
2021/04/17 12:26:46;;;;;;;;;;;17.20;57.00;;;;;;5069443;28;20399;-84
2021/04/17 12:29:12;;;;;;;;;;;17.20;57.00;;;;;;5059374;28;19912;-85
2021/04/17 12:31:37;;;;;;;;;;;17.20;57.10;;;;;;5037929;28;20035;-83
2021/04/17 12:34:03;;;;;;;;;;;17.20;57.10;;;;;;5060660;28;19920;-83
2021/04/17 12:36:28;;;;;;;;;;;17.20;57.20;;;;;;5061324;28;19916;-84
2021/04/17 12:38:54;;;;;;;;;;;17.20;57.20;;;;;;5069934;28;19912;-84
2021/04/17 12:41:20;;;;;;;;;;;17.30;57.20;;;;;;5053809;28;20018;-84
2021/04/17 12:43:45;;;;;;;;;;;17.20;57.20;;;;;;5072752;28;19917;-84
2021/04/17 12:46:11;;;;;;;;;;;17.20;57.10;;;;;;5073392;28;19919;-84
2021/04/17 12:48:36;;;;;;;;;;;17.20;57.20;;;;;;5053783;28;19978;-83
2021/04/17 12:51:02;;;;;;;;;;;17.20;57.20;;;;;;5055525;28;19959;-83
2021/04/17 12:53:27;;;;;;;;;;;17.20;57.20;;;;;;5055669;28;20280;-83
2021/04/17 12:55:53;;;;;;;;;;;17.20;57.20;;;;;;5063860;28;19965;-84
2021/04/17 12:58:19;;;;;;;;;;;17.20;57.20;;;;;;5073478;28;19912;-84
2021/04/17 13:00:44;;;;;;;;;;;17.30;57.20;;;;;;5070093;28;19995;-84
2021/04/17 13:03:10;;;;;;;;;;;17.20;57.20;;;;;;5054695;28;19920;-84
2021/04/17 13:05:36;;;;;;;;;;;17.20;57.20;;;;;;5070478;28;19919;-84
2021/04/17 13:08:01;;;;;;;;;;;17.20;57.20;;;;;;5044806;28;20488;-84
2021/04/17 13:10:27;;;;;;;;;;;17.20;57.20;;;;;;5049257;28;20356;-84
2021/04/17 13:12:52;;;;;;;;;;;17.20;57.20;;;;;;5050734;28;19953;-84
2021/04/17 13:15:18;;;;;;;;;;;17.20;57.20;;;;;;5043142;28;19928;-84
2021/04/17 13:17:43;;;;;;;;;;;17.20;57.20;;;;;;5051383;28;19959;-84
2021/04/17 13:20:09;;;;;;;;;;;17.20;57.20;;;;;;5053649;28;19919;-84
2021/04/17 13:22:35;;;;;;;;;;;17.20;57.20;;;;;;5055589;28;19913;-84
2021/04/17 13:25:04;;;;;;;;;;;17.20;57.20;;;;;;5051810;28;19974;-83
2021/04/17 13:27:30;;;;;;;;;;;17.20;57.20;;;;;;5050950;28;20004;-84
2021/04/17 13:30:04;;;;;;;;;;;17.30;57.20;;;;;;5051354;28;20397;-84
2021/04/17 13:32:30;;;;;;;;;;;17.20;57.20;;;;;;5051013;28;19913;-84
2021/04/17 13:34:56;;;;;;;;;;;17.30;57.10;;;;;;5038154;28;19928;-84
2021/04/17 13:37:23;;;;;;;;;;;17.30;56.90;;;;;;5058473;28;19917;-86
2021/04/17 13:39:49;;;;;;;;;;;17.30;56.80;;;;;;5052954;28;20316;-91
2021/04/17 13:42:14;;;;;;;;;;;17.30;56.70;;;;;;5055588;28;19912;-87
2021/04/17 13:44:40;;;;;;;;;;;17.40;56.70;;;;;;5044323;28;19920;-86
2021/04/17 13:47:05;;;;;;;;;;;17.40;56.70;;;;;;5065026;28;20256;-92
2021/04/17 13:49:31;;;;;;;;;;;17.40;56.70;;;;;;5045080;28;19955;-88
2021/04/17 13:51:56;;;;;;;;;;;17.40;56.80;;;;;;5052776;28;19917;-88
2021/04/17 13:54:22;;;;;;;;;;;17.40;56.80;;;;;;5055032;28;20274;-86
2021/04/17 13:56:48;;;;;;;;;;;17.40;56.80;;;;;;5053599;28;20342;-87
2021/04/17 13:59:13;;;;;;;;;;;17.40;56.80;;;;;;5052785;28;19920;-88
2021/04/17 14:01:39;;;;;;;;;;;17.40;56.80;;;;;;5049734;28;19975;-88
2021/04/17 14:04:05;;;;;;;;;;;17.30;56.90;;;;;;5055854;28;19917;-88
2021/04/17 14:06:30;;;;;;;;;;;17.30;56.90;;;;;;5055114;28;19913;-88
2021/04/17 14:08:56;;;;;;;;;;;17.40;56.90;;;;;;5073466;28;20312;-87
2021/04/17 14:11:22;;;;;;;;;;;17.30;56.90;;;;;;5058568;28;19918;-86
2021/04/17 14:13:48;;;;;;;;;;;17.30;57.00;;;;;;5057189;28;19979;-86